sensor_id;sensor_type;location;lat;lon;timestamp;temperature;humidity
75769;DHT22;64379;48.888;8.330;2023-03-01T00:01:33;-2.20;71.30
75769;DHT22;64379;48.888;8.330;2023-03-01T00:03:59;-2.30;71.60
75769;DHT22;64379;48.888;8.330;2023-03-01T00:06:26;-2.30;71.60
75769;DHT22;64379;48.888;8.330;2023-03-01T00:08:52;-2.30;71.80
75769;DHT22;64379;48.888;8.330;2023-03-01T00:11:20;-2.30;71.90
75769;DHT22;64379;48.888;8.330;2023-03-01T00:13:48;-2.20;71.70
75769;DHT22;64379;48.888;8.330;2023-03-01T00:16:18;-1.90;71.10
75769;DHT22;64379;48.888;8.330;2023-03-01T00:18:46;-1.80;70.40
75769;DHT22;64379;48.888;8.330;2023-03-01T00:21:12;-2.00;70.30
75769;DHT22;64379;48.888;8.330;2023-03-01T00:23:39;-2.10;71.00
75769;DHT22;64379;48.888;8.330;2023-03-01T00:26:09;-2.00;70.90
75769;DHT22;64379;48.888;8.330;2023-03-01T00:28:36;-2.10;70.80
75769;DHT22;64379;48.888;8.330;2023-03-01T00:31:06;-2.10;70.80
75769;DHT22;64379;48.888;8.330;2023-03-01T00:33:32;-2.10;71.00
75769;DHT22;64379;48.888;8.330;2023-03-01T00:35:58;-2.20;71.10
75769;DHT22;64379;48.888;8.330;2023-03-01T00:38:24;-2.20;71.20
75769;DHT22;64379;48.888;8.330;2023-03-01T00:40:49;-2.10;71.20
75769;DHT22;64379;48.888;8.330;2023-03-01T00:43:15;-1.90;70.80
75769;DHT22;64379;48.888;8.330;2023-03-01T00:45:41;-1.80;70.40
75769;DHT22;64379;48.888;8.330;2023-03-01T00:48:06;-1.70;70.00
75769;DHT22;64379;48.888;8.330;2023-03-01T00:50:32;-1.60;69.90
75769;DHT22;64379;48.888;8.330;2023-03-01T00:52:58;-1.60;69.80
75769;DHT22;64379;48.888;8.330;2023-03-01T00:55:24;-1.50;69.40
75769;DHT22;64379;48.888;8.330;2023-03-01T00:57:50;-1.60;69.50
75769;DHT22;64379;48.888;8.330;2023-03-01T01:00:16;-1.60;69.30
75769;DHT22;64379;48.888;8.330;2023-03-01T01:02:42;-1.70;69.50
75769;DHT22;64379;48.888;8.330;2023-03-01T01:05:08;-1.70;69.80
75769;DHT22;64379;48.888;8.330;2023-03-01T01:07:34;-1.80;70.20
75769;DHT22;64379;48.888;8.330;2023-03-01T01:09:59;-1.80;70.40
75769;DHT22;64379;48.888;8.330;2023-03-01T01:12:25;-1.70;70.30
75769;DHT22;64379;48.888;8.330;2023-03-01T01:14:50;-1.60;69.80
75769;DHT22;64379;48.888;8.330;2023-03-01T01:17:16;-1.50;69.60
75769;DHT22;64379;48.888;8.330;2023-03-01T01:19:42;-1.50;69.40
75769;DHT22;64379;48.888;8.330;2023-03-01T01:22:07;-1.50;69.20
75769;DHT22;64379;48.888;8.330;2023-03-01T01:24:33;-1.50;69.40
75769;DHT22;64379;48.888;8.330;2023-03-01T01:26:58;-1.50;69.30
75769;DHT22;64379;48.888;8.330;2023-03-01T01:29:24;-1.50;69.20
75769;DHT22;64379;48.888;8.330;2023-03-01T01:31:49;-1.50;69.50
75769;DHT22;64379;48.888;8.330;2023-03-01T01:34:19;-1.60;69.90
75769;DHT22;64379;48.888;8.330;2023-03-01T01:36:48;-1.80;70.20
75769;DHT22;64379;48.888;8.330;2023-03-01T01:39:14;-1.90;70.70
75769;DHT22;64379;48.888;8.330;2023-03-01T01:41:41;-1.70;70.40
75769;DHT22;64379;48.888;8.330;2023-03-01T01:44:12;-1.60;70.10
75769;DHT22;64379;48.888;8.330;2023-03-01T01:46:40;-1.60;70.00
75769;DHT22;64379;48.888;8.330;2023-03-01T01:49:29;-1.50;69.70
75769;DHT22;64379;48.888;8.330;2023-03-01T01:52:13;-1.50;69.80
75769;DHT22;64379;48.888;8.330;2023-03-01T01:57:30;-1.30;69.30
75769;DHT22;64379;48.888;8.330;2023-03-01T02:00:00;-1.40;69.40
75769;DHT22;64379;48.888;8.330;2023-03-01T02:02:28;-1.40;69.40
75769;DHT22;64379;48.888;8.330;2023-03-01T02:05:03;-1.40;69.40
75769;DHT22;64379;48.888;8.330;2023-03-01T02:07:38;-1.50;69.70
75769;DHT22;64379;48.888;8.330;2023-03-01T02:10:04;-1.50;69.50
75769;DHT22;64379;48.888;8.330;2023-03-01T02:12:30;-1.50;69.60
75769;DHT22;64379;48.888;8.330;2023-03-01T02:14:56;-1.40;69.50
75769;DHT22;64379;48.888;8.330;2023-03-01T02:17:22;-1.40;69.40
75769;DHT22;64379;48.888;8.330;2023-03-01T02:22:37;-1.50;69.60
75769;DHT22;64379;48.888;8.330;2023-03-01T02:30:22;-1.50;69.70
75769;DHT22;64379;48.888;8.330;2023-03-01T02:32:51;-1.50;69.80
75769;DHT22;64379;48.888;8.330;2023-03-01T02:35:18;-1.50;69.90
75769;DHT22;64379;48.888;8.330;2023-03-01T02:37:45;-1.60;70.20
75769;DHT22;64379;48.888;8.330;2023-03-01T02:40:16;-1.60;70.10
75769;DHT22;64379;48.888;8.330;2023-03-01T02:42:56;-1.60;70.10
75769;DHT22;64379;48.888;8.330;2023-03-01T02:45:22;-1.60;70.20
75769;DHT22;64379;48.888;8.330;2023-03-01T02:47:49;-1.70;70.50
75769;DHT22;64379;48.888;8.330;2023-03-01T02:53:03;-1.70;70.70
75769;DHT22;64379;48.888;8.330;2023-03-01T02:55:30;-1.80;70.80
75769;DHT22;64379;48.888;8.330;2023-03-01T02:57:56;-1.80;70.90
75769;DHT22;64379;48.888;8.330;2023-03-01T03:00:31;-1.90;71.00
75769;DHT22;64379;48.888;8.330;2023-03-01T03:02:58;-1.90;71.10
75769;DHT22;64379;48.888;8.330;2023-03-01T03:05:27;-2.00;71.50
75769;DHT22;64379;48.888;8.330;2023-03-01T03:07:54;-2.00;71.60
75769;DHT22;64379;48.888;8.330;2023-03-01T03:10:26;-2.10;71.80
75769;DHT22;64379;48.888;8.330;2023-03-01T03:12:55;-2.10;71.90
75769;DHT22;64379;48.888;8.330;2023-03-01T03:15:22;-2.10;71.90
75769;DHT22;64379;48.888;8.330;2023-03-01T03:17:48;-2.10;72.10
75769;DHT22;64379;48.888;8.330;2023-03-01T03:20:16;-2.10;72.20
75769;DHT22;64379;48.888;8.330;2023-03-01T03:22:44;-2.10;72.40
75769;DHT22;64379;48.888;8.330;2023-03-01T03:25:10;-2.30;72.80
75769;DHT22;64379;48.888;8.330;2023-03-01T03:27:37;-2.30;72.90
75769;DHT22;64379;48.888;8.330;2023-03-01T03:30:05;-2.30;72.90
75769;DHT22;64379;48.888;8.330;2023-03-01T03:32:36;-2.20;72.80
75769;DHT22;64379;48.888;8.330;2023-03-01T03:35:03;-2.30;72.70
75769;DHT22;64379;48.888;8.330;2023-03-01T03:37:39;-2.30;72.90
75769;DHT22;64379;48.888;8.330;2023-03-01T03:40:23;-2.40;73.00
75769;DHT22;64379;48.888;8.330;2023-03-01T03:42:49;-2.50;73.30
75769;DHT22;64379;48.888;8.330;2023-03-01T03:45:16;-2.50;73.40
75769;DHT22;64379;48.888;8.330;2023-03-01T03:47:42;-2.50;73.20
75769;DHT22;64379;48.888;8.330;2023-03-01T03:50:09;-2.60;73.40
75769;DHT22;64379;48.888;8.330;2023-03-01T03:52:35;-2.60;73.60
75769;DHT22;64379;48.888;8.330;2023-03-01T03:55:01;-2.70;73.90
75769;DHT22;64379;48.888;8.330;2023-03-01T03:57:26;-2.60;73.80
75769;DHT22;64379;48.888;8.330;2023-03-01T03:59:52;-2.60;73.80
75769;DHT22;64379;48.888;8.330;2023-03-01T04:02:18;-2.70;74.00
75769;DHT22;64379;48.888;8.330;2023-03-01T04:04:50;-2.70;74.10
75769;DHT22;64379;48.888;8.330;2023-03-01T04:07:16;-2.70;74.20
75769;DHT22;64379;48.888;8.330;2023-03-01T04:09:42;-2.70;74.10
75769;DHT22;64379;48.888;8.330;2023-03-01T04:12:09;-2.80;74.20
75769;DHT22;64379;48.888;8.330;2023-03-01T04:14:35;-2.80;74.40
75769;DHT22;64379;48.888;8.330;2023-03-01T04:17:00;-2.70;74.60
75769;DHT22;64379;48.888;8.330;2023-03-01T04:19:26;-2.60;74.30
75769;DHT22;64379;48.888;8.330;2023-03-01T04:21:52;-2.50;74.00
75769;DHT22;64379;48.888;8.330;2023-03-01T04:24:18;-2.50;73.60
75769;DHT22;64379;48.888;8.330;2023-03-01T04:26:44;-2.50;73.90
75769;DHT22;64379;48.888;8.330;2023-03-01T04:29:10;-2.60;73.90
75769;DHT22;64379;48.888;8.330;2023-03-01T04:31:35;-2.50;73.80
75769;DHT22;64379;48.888;8.330;2023-03-01T04:34:01;-2.50;73.90
75769;DHT22;64379;48.888;8.330;2023-03-01T04:36:28;-2.50;73.70
75769;DHT22;64379;48.888;8.330;2023-03-01T04:38:55;-2.60;73.90
75769;DHT22;64379;48.888;8.330;2023-03-01T04:41:23;-2.80;74.40
75769;DHT22;64379;48.888;8.330;2023-03-01T04:43:49;-2.60;74.40
75769;DHT22;64379;48.888;8.330;2023-03-01T04:46:17;-2.50;74.20
75769;DHT22;64379;48.888;8.330;2023-03-01T04:48:45;-2.40;73.80
75769;DHT22;64379;48.888;8.330;2023-03-01T04:51:12;-2.40;73.70
75769;DHT22;64379;48.888;8.330;2023-03-01T04:53:41;-2.40;73.50
75769;DHT22;64379;48.888;8.330;2023-03-01T04:56:07;-2.40;73.70
75769;DHT22;64379;48.888;8.330;2023-03-01T04:58:32;-2.50;73.80
75769;DHT22;64379;48.888;8.330;2023-03-01T05:00:58;-2.60;74.10
75769;DHT22;64379;48.888;8.330;2023-03-01T05:03:24;-2.50;74.10
75769;DHT22;64379;48.888;8.330;2023-03-01T05:05:52;-2.50;74.00
75769;DHT22;64379;48.888;8.330;2023-03-01T05:08:18;-2.60;74.00
75769;DHT22;64379;48.888;8.330;2023-03-01T05:10:50;-2.60;74.30
75769;DHT22;64379;48.888;8.330;2023-03-01T05:13:17;-2.60;74.20
75769;DHT22;64379;48.888;8.330;2023-03-01T05:15:54;-2.50;74.30
75769;DHT22;64379;48.888;8.330;2023-03-01T05:18:20;-2.50;74.10
75769;DHT22;64379;48.888;8.330;2023-03-01T05:20:46;-2.50;74.10
75769;DHT22;64379;48.888;8.330;2023-03-01T05:23:12;-2.50;74.10
75769;DHT22;64379;48.888;8.330;2023-03-01T05:25:38;-2.50;74.20
75769;DHT22;64379;48.888;8.330;2023-03-01T05:28:07;-2.50;74.10
75769;DHT22;64379;48.888;8.330;2023-03-01T05:30:35;-2.50;74.20
75769;DHT22;64379;48.888;8.330;2023-03-01T05:33:01;-2.60;74.30
75769;DHT22;64379;48.888;8.330;2023-03-01T05:35:28;-2.60;74.60
75769;DHT22;64379;48.888;8.330;2023-03-01T05:37:54;-2.60;74.40
75769;DHT22;64379;48.888;8.330;2023-03-01T05:40:22;-2.70;74.50
75769;DHT22;64379;48.888;8.330;2023-03-01T05:42:54;-2.80;74.80
75769;DHT22;64379;48.888;8.330;2023-03-01T05:45:20;-2.70;74.80
75769;DHT22;64379;48.888;8.330;2023-03-01T05:47:47;-2.60;74.80
75769;DHT22;64379;48.888;8.330;2023-03-01T05:50:19;-2.60;74.50
75769;DHT22;64379;48.888;8.330;2023-03-01T05:52:56;-2.60;74.40
75769;DHT22;64379;48.888;8.330;2023-03-01T05:55:22;-2.60;74.50
75769;DHT22;64379;48.888;8.330;2023-03-01T05:57:48;-2.70;74.80
75769;DHT22;64379;48.888;8.330;2023-03-01T06:00:17;-2.70;75.00
75769;DHT22;64379;48.888;8.330;2023-03-01T06:02:43;-2.70;75.00
75769;DHT22;64379;48.888;8.330;2023-03-01T06:05:10;-2.80;75.20
75769;DHT22;64379;48.888;8.330;2023-03-01T06:07:36;-2.80;75.30
75769;DHT22;64379;48.888;8.330;2023-03-01T06:10:05;-2.80;75.40
75769;DHT22;64379;48.888;8.330;2023-03-01T06:12:33;-2.80;75.50
75769;DHT22;64379;48.888;8.330;2023-03-01T06:14:59;-2.80;75.50
75769;DHT22;64379;48.888;8.330;2023-03-01T06:17:25;-2.80;75.50
75769;DHT22;64379;48.888;8.330;2023-03-01T06:19:51;-2.90;75.60
75769;DHT22;64379;48.888;8.330;2023-03-01T06:22:16;-2.90;75.90
75769;DHT22;64379;48.888;8.330;2023-03-01T06:24:42;-2.90;75.80
75769;DHT22;64379;48.888;8.330;2023-03-01T06:27:07;-2.80;75.50
75769;DHT22;64379;48.888;8.330;2023-03-01T06:29:33;-2.80;75.60
75769;DHT22;64379;48.888;8.330;2023-03-01T06:31:59;-2.80;75.50
75769;DHT22;64379;48.888;8.330;2023-03-01T06:34:24;-2.70;75.40
75769;DHT22;64379;48.888;8.330;2023-03-01T06:36:50;-2.70;75.20
75769;DHT22;64379;48.888;8.330;2023-03-01T06:39:16;-2.70;75.30
75769;DHT22;64379;48.888;8.330;2023-03-01T06:41:43;-2.60;75.20
75769;DHT22;64379;48.888;8.330;2023-03-01T06:44:08;-2.60;75.10
75769;DHT22;64379;48.888;8.330;2023-03-01T06:46:34;-2.60;75.20
75769;DHT22;64379;48.888;8.330;2023-03-01T06:49:00;-2.60;75.30
75769;DHT22;64379;48.888;8.330;2023-03-01T06:51:25;-2.60;75.30
75769;DHT22;64379;48.888;8.330;2023-03-01T06:53:51;-2.60;75.30
75769;DHT22;64379;48.888;8.330;2023-03-01T06:56:17;-2.60;75.30
75769;DHT22;64379;48.888;8.330;2023-03-01T06:58:42;-2.50;75.20
75769;DHT22;64379;48.888;8.330;2023-03-01T07:01:09;-2.10;74.20
75769;DHT22;64379;48.888;8.330;2023-03-01T07:03:34;-1.70;72.90
75769;DHT22;64379;48.888;8.330;2023-03-01T07:06:00;-1.80;72.60
75769;DHT22;64379;48.888;8.330;2023-03-01T07:08:26;-1.80;72.60
75769;DHT22;64379;48.888;8.330;2023-03-01T07:10:58;-1.80;72.90
75769;DHT22;64379;48.888;8.330;2023-03-01T07:13:24;-1.70;72.60
75769;DHT22;64379;48.888;8.330;2023-03-01T07:15:50;-1.30;71.60
75769;DHT22;64379;48.888;8.330;2023-03-01T07:18:16;-0.80;70.00
75769;DHT22;64379;48.888;8.330;2023-03-01T07:20:41;-0.40;68.70
75769;DHT22;64379;48.888;8.330;2023-03-01T07:23:07;-0.10;68.20
75769;DHT22;64379;48.888;8.330;2023-03-01T07:25:33;-0.10;67.30
75769;DHT22;64379;48.888;8.330;2023-03-01T07:27:58;-0.10;67.30
75769;DHT22;64379;48.888;8.330;2023-03-01T07:30:24;0.10;66.90
75769;DHT22;64379;48.888;8.330;2023-03-01T07:32:54;0.30;65.80
75769;DHT22;64379;48.888;8.330;2023-03-01T07:35:21;0.20;65.60
75769;DHT22;64379;48.888;8.330;2023-03-01T07:37:46;0.00;66.10
75769;DHT22;64379;48.888;8.330;2023-03-01T07:40:12;0.00;65.70
75769;DHT22;64379;48.888;8.330;2023-03-01T07:42:38;0.10;66.40
75769;DHT22;64379;48.888;8.330;2023-03-01T07:45:05;0.30;65.60
75769;DHT22;64379;48.888;8.330;2023-03-01T07:47:31;0.50;65.00
75769;DHT22;64379;48.888;8.330;2023-03-01T07:49:57;0.30;65.70
75769;DHT22;64379;48.888;8.330;2023-03-01T07:52:22;0.60;65.00
75769;DHT22;64379;48.888;8.330;2023-03-01T07:54:48;0.80;64.00
75769;DHT22;64379;48.888;8.330;2023-03-01T07:57:14;0.90;63.50
75769;DHT22;64379;48.888;8.330;2023-03-01T07:59:40;0.60;64.60
75769;DHT22;64379;48.888;8.330;2023-03-01T08:02:05;0.20;64.80
75769;DHT22;64379;48.888;8.330;2023-03-01T08:04:32;0.00;66.30
75769;DHT22;64379;48.888;8.330;2023-03-01T08:06:58;0.00;66.10
75769;DHT22;64379;48.888;8.330;2023-03-01T08:09:24;0.00;66.20
75769;DHT22;64379;48.888;8.330;2023-03-01T08:11:50;0.00;66.10
75769;DHT22;64379;48.888;8.330;2023-03-01T08:14:16;0.00;66.70
75769;DHT22;64379;48.888;8.330;2023-03-01T08:16:42;0.10;66.00
75769;DHT22;64379;48.888;8.330;2023-03-01T08:19:10;0.20;66.20
75769;DHT22;64379;48.888;8.330;2023-03-01T08:21:36;0.20;66.00
75769;DHT22;64379;48.888;8.330;2023-03-01T08:24:03;0.10;66.30
75769;DHT22;64379;48.888;8.330;2023-03-01T08:26:29;0.00;65.40
75769;DHT22;64379;48.888;8.330;2023-03-01T08:28:55;0.20;66.10
75769;DHT22;64379;48.888;8.330;2023-03-01T08:31:23;0.30;66.10
75769;DHT22;64379;48.888;8.330;2023-03-01T08:33:50;0.50;65.20
75769;DHT22;64379;48.888;8.330;2023-03-01T08:36:27;0.70;65.30
75769;DHT22;64379;48.888;8.330;2023-03-01T08:38:53;0.70;64.90
75769;DHT22;64379;48.888;8.330;2023-03-01T08:41:18;0.80;65.50
75769;DHT22;64379;48.888;8.330;2023-03-01T08:43:44;1.00;64.40
75769;DHT22;64379;48.888;8.330;2023-03-01T08:46:10;1.10;63.50
75769;DHT22;64379;48.888;8.330;2023-03-01T08:48:36;1.10;63.50
75769;DHT22;64379;48.888;8.330;2023-03-01T08:51:15;1.30;63.00
75769;DHT22;64379;48.888;8.330;2023-03-01T08:53:41;1.20;62.60
75769;DHT22;64379;48.888;8.330;2023-03-01T08:56:08;1.30;63.40
75769;DHT22;64379;48.888;8.330;2023-03-01T08:58:34;1.30;63.10
75769;DHT22;64379;48.888;8.330;2023-03-01T09:00:59;1.20;63.60
75769;DHT22;64379;48.888;8.330;2023-03-01T09:03:25;1.50;62.90
75769;DHT22;64379;48.888;8.330;2023-03-01T09:05:52;1.70;62.50
75769;DHT22;64379;48.888;8.330;2023-03-01T09:08:18;1.80;61.40
75769;DHT22;64379;48.888;8.330;2023-03-01T09:10:45;1.90;61.70
75769;DHT22;64379;48.888;8.330;2023-03-01T09:13:11;2.10;61.40
75769;DHT22;64379;48.888;8.330;2023-03-01T09:15:37;2.20;61.40
75769;DHT22;64379;48.888;8.330;2023-03-01T09:18:03;2.20;60.70
75769;DHT22;64379;48.888;8.330;2023-03-01T09:20:30;2.50;60.80
75769;DHT22;64379;48.888;8.330;2023-03-01T09:22:56;2.40;59.80
75769;DHT22;64379;48.888;8.330;2023-03-01T09:25:22;2.40;60.10
75769;DHT22;64379;48.888;8.330;2023-03-01T09:27:51;2.70;60.10
75769;DHT22;64379;48.888;8.330;2023-03-01T09:30:17;2.50;59.50
75769;DHT22;64379;48.888;8.330;2023-03-01T09:32:42;2.60;59.60
75769;DHT22;64379;48.888;8.330;2023-03-01T09:35:11;2.80;59.70
75769;DHT22;64379;48.888;8.330;2023-03-01T09:37:37;2.80;60.00
75769;DHT22;64379;48.888;8.330;2023-03-01T09:40:04;2.90;59.20
75769;DHT22;64379;48.888;8.330;2023-03-01T09:42:33;2.50;59.10
75769;DHT22;64379;48.888;8.330;2023-03-01T09:45:03;2.80;59.00
75769;DHT22;64379;48.888;8.330;2023-03-01T09:47:33;3.00;58.50
75769;DHT22;64379;48.888;8.330;2023-03-01T09:50:17;3.10;59.10
75769;DHT22;64379;48.888;8.330;2023-03-01T09:52:53;3.10;58.30
75769;DHT22;64379;48.888;8.330;2023-03-01T09:55:37;3.20;58.30
75769;DHT22;64379;48.888;8.330;2023-03-01T09:58:31;3.30;57.60
75769;DHT22;64379;48.888;8.330;2023-03-01T10:06:25;3.40;57.10
75769;DHT22;64379;48.888;8.330;2023-03-01T10:09:05;3.30;56.60
75769;DHT22;64379;48.888;8.330;2023-03-01T10:11:37;3.60;56.90
75769;DHT22;64379;48.888;8.330;2023-03-01T10:14:29;3.80;56.50
75769;DHT22;64379;48.888;8.330;2023-03-01T10:17:00;3.70;55.90
75769;DHT22;64379;48.888;8.330;2023-03-01T10:19:36;4.00;56.20
75769;DHT22;64379;48.888;8.330;2023-03-01T10:22:24;4.00;55.80
75769;DHT22;64379;48.888;8.330;2023-03-01T10:24:51;3.90;55.40
75769;DHT22;64379;48.888;8.330;2023-03-01T10:30:10;3.90;55.40
75769;DHT22;64379;48.888;8.330;2023-03-01T10:32:38;4.00;55.50
75769;DHT22;64379;48.888;8.330;2023-03-01T10:35:25;4.10;55.20
75769;DHT22;64379;48.888;8.330;2023-03-01T10:38:03;4.00;55.50
75769;DHT22;64379;48.888;8.330;2023-03-01T10:40:30;4.20;55.20
75769;DHT22;64379;48.888;8.330;2023-03-01T10:43:02;4.40;54.30
75769;DHT22;64379;48.888;8.330;2023-03-01T10:50:30;5.00;54.20
75769;DHT22;64379;48.888;8.330;2023-03-01T10:52:59;5.00;52.70
75769;DHT22;64379;48.888;8.330;2023-03-01T10:55:35;5.10;53.00
75769;DHT22;64379;48.888;8.330;2023-03-01T11:00:33;5.50;52.10
75769;DHT22;64379;48.888;8.330;2023-03-01T11:05:25;5.20;51.30
75769;DHT22;64379;48.888;8.330;2023-03-01T11:07:58;5.50;52.50
75769;DHT22;64379;48.888;8.330;2023-03-01T11:10:26;5.30;52.40
75769;DHT22;64379;48.888;8.330;2023-03-01T11:12:53;5.70;52.20
75769;DHT22;64379;48.888;8.330;2023-03-01T11:15:28;5.80;50.50
75769;DHT22;64379;48.888;8.330;2023-03-01T11:17:56;5.80;51.10
75769;DHT22;64379;48.888;8.330;2023-03-01T11:20:34;6.10;50.90
75769;DHT22;64379;48.888;8.330;2023-03-01T11:23:12;6.20;50.50
75769;DHT22;64379;48.888;8.330;2023-03-01T11:25:42;6.10;49.80
75769;DHT22;64379;48.888;8.330;2023-03-01T11:28:12;6.10;50.30
75769;DHT22;64379;48.888;8.330;2023-03-01T11:36:07;6.20;50.00
75769;DHT22;64379;48.888;8.330;2023-03-01T11:38:36;6.30;50.10
75769;DHT22;64379;48.888;8.330;2023-03-01T11:41:10;6.00;50.40
75769;DHT22;64379;48.888;8.330;2023-03-01T11:43:59;6.30;50.00
75769;DHT22;64379;48.888;8.330;2023-03-01T11:54:31;6.00;49.60
75769;DHT22;64379;48.888;8.330;2023-03-01T11:57:01;6.20;50.20
75769;DHT22;64379;48.888;8.330;2023-03-01T12:05:03;6.80;48.80
75769;DHT22;64379;48.888;8.330;2023-03-01T12:07:42;7.00;48.40
75769;DHT22;64379;48.888;8.330;2023-03-01T12:29:30;8.60;45.90
75769;DHT22;64379;48.888;8.330;2023-03-01T12:45:32;7.80;47.10
75769;DHT22;64379;48.888;8.330;2023-03-01T12:50:46;8.40;45.50
75769;DHT22;64379;48.888;8.330;2023-03-01T12:53:39;8.20;45.20
75769;DHT22;64379;48.888;8.330;2023-03-01T12:56:11;8.60;45.10
75769;DHT22;64379;48.888;8.330;2023-03-01T13:06:55;7.70;46.70
75769;DHT22;64379;48.888;8.330;2023-03-01T13:09:35;7.70;47.20
75769;DHT22;64379;48.888;8.330;2023-03-01T13:12:02;8.00;46.60
75769;DHT22;64379;48.888;8.330;2023-03-01T13:16:57;7.80;46.80
75769;DHT22;64379;48.888;8.330;2023-03-01T13:19:25;7.80;46.10
75769;DHT22;64379;48.888;8.330;2023-03-01T13:21:52;7.70;46.20
75769;DHT22;64379;48.888;8.330;2023-03-01T13:27:20;7.90;46.00
75769;DHT22;64379;48.888;8.330;2023-03-01T13:37:41;7.50;47.10
75769;DHT22;64379;48.888;8.330;2023-03-01T13:42:48;7.70;47.50
75769;DHT22;64379;48.888;8.330;2023-03-01T13:47:46;7.40;47.80
75769;DHT22;64379;48.888;8.330;2023-03-01T13:50:29;7.50;47.40
75769;DHT22;64379;48.888;8.330;2023-03-01T13:53:03;7.60;47.00
75769;DHT22;64379;48.888;8.330;2023-03-01T13:55:37;7.70;47.40
75769;DHT22;64379;48.888;8.330;2023-03-01T13:58:25;7.70;47.50
75769;DHT22;64379;48.888;8.330;2023-03-01T14:01:34;7.20;47.80
75769;DHT22;64379;48.888;8.330;2023-03-01T14:04:01;7.50;47.20
75769;DHT22;64379;48.888;8.330;2023-03-01T14:06:29;7.60;47.50
75769;DHT22;64379;48.888;8.330;2023-03-01T14:09:16;7.70;47.50
75769;DHT22;64379;48.888;8.330;2023-03-01T14:11:52;7.60;47.60
75769;DHT22;64379;48.888;8.330;2023-03-01T14:14:43;7.50;47.50
75769;DHT22;64379;48.888;8.330;2023-03-01T14:19:48;7.50;46.80
75769;DHT22;64379;48.888;8.330;2023-03-01T14:22:27;7.50;47.50
75769;DHT22;64379;48.888;8.330;2023-03-01T14:27:28;7.50;47.50
75769;DHT22;64379;48.888;8.330;2023-03-01T14:29:57;7.50;47.00
75769;DHT22;64379;48.888;8.330;2023-03-01T14:32:31;7.50;47.20
75769;DHT22;64379;48.888;8.330;2023-03-01T14:34:58;7.70;46.70
75769;DHT22;64379;48.888;8.330;2023-03-01T14:37:33;7.50;47.10
75769;DHT22;64379;48.888;8.330;2023-03-01T14:40:01;7.50;47.50
75769;DHT22;64379;48.888;8.330;2023-03-01T14:42:31;7.50;47.30
75769;DHT22;64379;48.888;8.330;2023-03-01T14:44:57;7.60;46.90
75769;DHT22;64379;48.888;8.330;2023-03-01T14:47:31;7.70;47.10
75769;DHT22;64379;48.888;8.330;2023-03-01T14:50:05;7.60;46.80
75769;DHT22;64379;48.888;8.330;2023-03-01T14:52:41;7.50;47.40
75769;DHT22;64379;48.888;8.330;2023-03-01T14:55:16;7.30;47.70
75769;DHT22;64379;48.888;8.330;2023-03-01T14:57:44;7.20;47.90
75769;DHT22;64379;48.888;8.330;2023-03-01T15:00:27;7.10;48.30
75769;DHT22;64379;48.888;8.330;2023-03-01T15:02:55;7.20;48.30
75769;DHT22;64379;48.888;8.330;2023-03-01T15:05:32;7.20;48.00
75769;DHT22;64379;48.888;8.330;2023-03-01T15:08:00;7.10;47.80
75769;DHT22;64379;48.888;8.330;2023-03-01T15:10:33;7.10;48.10
75769;DHT22;64379;48.888;8.330;2023-03-01T15:13:22;7.10;47.90
75769;DHT22;64379;48.888;8.330;2023-03-01T15:15:49;7.10;48.00
75769;DHT22;64379;48.888;8.330;2023-03-01T15:18:22;7.00;48.30
75769;DHT22;64379;48.888;8.330;2023-03-01T15:20:49;7.10;48.20
75769;DHT22;64379;48.888;8.330;2023-03-01T15:23:25;7.00;48.20
75769;DHT22;64379;48.888;8.330;2023-03-01T15:25:53;7.00;48.20
75769;DHT22;64379;48.888;8.330;2023-03-01T15:28:49;6.90;48.20
75769;DHT22;64379;48.888;8.330;2023-03-01T15:31:22;6.90;49.00
75769;DHT22;64379;48.888;8.330;2023-03-01T15:33:48;7.00;48.20
75769;DHT22;64379;48.888;8.330;2023-03-01T15:39:02;7.00;48.50
75769;DHT22;64379;48.888;8.330;2023-03-01T15:41:47;6.90;48.60
75769;DHT22;64379;48.888;8.330;2023-03-01T15:44:28;6.80;48.60
75769;DHT22;64379;48.888;8.330;2023-03-01T15:46:54;6.80;48.90
75769;DHT22;64379;48.888;8.330;2023-03-01T15:49:40;6.80;48.50
75769;DHT22;64379;48.888;8.330;2023-03-01T15:52:28;6.80;48.50
75769;DHT22;64379;48.888;8.330;2023-03-01T15:55:04;6.80;48.70
75769;DHT22;64379;48.888;8.330;2023-03-01T15:57:30;6.80;48.40
75769;DHT22;64379;48.888;8.330;2023-03-01T15:59:56;6.70;48.50
75769;DHT22;64379;48.888;8.330;2023-03-01T16:02:23;6.70;48.50
75769;DHT22;64379;48.888;8.330;2023-03-01T16:04:50;6.70;48.70
75769;DHT22;64379;48.888;8.330;2023-03-01T16:07:16;6.60;48.60
75769;DHT22;64379;48.888;8.330;2023-03-01T16:09:41;6.60;49.00
75769;DHT22;64379;48.888;8.330;2023-03-01T16:12:14;6.60;48.90
75769;DHT22;64379;48.888;8.330;2023-03-01T16:14:40;6.60;49.00
75769;DHT22;64379;48.888;8.330;2023-03-01T16:17:05;6.60;48.50
75769;DHT22;64379;48.888;8.330;2023-03-01T16:19:32;6.50;48.80
75769;DHT22;64379;48.888;8.330;2023-03-01T16:21:58;6.50;48.80
75769;DHT22;64379;48.888;8.330;2023-03-01T16:24:24;6.50;49.00
75769;DHT22;64379;48.888;8.330;2023-03-01T16:26:51;6.40;49.10
75769;DHT22;64379;48.888;8.330;2023-03-01T16:29:16;6.30;49.60
75769;DHT22;64379;48.888;8.330;2023-03-01T16:31:42;6.20;50.00
75769;DHT22;64379;48.888;8.330;2023-03-01T16:34:08;6.20;49.80
75769;DHT22;64379;48.888;8.330;2023-03-01T16:36:33;6.20;49.70
75769;DHT22;64379;48.888;8.330;2023-03-01T16:38:59;6.10;49.70
75769;DHT22;64379;48.888;8.330;2023-03-01T16:41:27;6.00;50.10
75769;DHT22;64379;48.888;8.330;2023-03-01T16:43:52;6.00;49.80
75769;DHT22;64379;48.888;8.330;2023-03-01T16:46:23;6.00;49.70
75769;DHT22;64379;48.888;8.330;2023-03-01T16:48:50;5.90;50.30
75769;DHT22;64379;48.888;8.330;2023-03-01T16:51:15;5.80;50.60
75769;DHT22;64379;48.888;8.330;2023-03-01T16:53:41;5.70;50.80
75769;DHT22;64379;48.888;8.330;2023-03-01T16:56:09;5.70;50.50
75769;DHT22;64379;48.888;8.330;2023-03-01T16:58:36;5.70;50.60
75769;DHT22;64379;48.888;8.330;2023-03-01T17:01:19;5.60;51.00
75769;DHT22;64379;48.888;8.330;2023-03-01T17:03:46;5.50;51.50
75769;DHT22;64379;48.888;8.330;2023-03-01T17:06:15;5.30;51.80
75769;DHT22;64379;48.888;8.330;2023-03-01T17:08:41;5.30;51.90
75769;DHT22;64379;48.888;8.330;2023-03-01T17:11:15;5.20;52.30
75769;DHT22;64379;48.888;8.330;2023-03-01T17:13:41;5.00;52.60
75769;DHT22;64379;48.888;8.330;2023-03-01T17:16:10;5.10;52.20
75769;DHT22;64379;48.888;8.330;2023-03-01T17:18:36;5.00;52.50
75769;DHT22;64379;48.888;8.330;2023-03-01T17:21:04;5.00;52.70
75769;DHT22;64379;48.888;8.330;2023-03-01T17:23:30;4.90;53.20
75769;DHT22;64379;48.888;8.330;2023-03-01T17:25:57;4.80;53.10
75769;DHT22;64379;48.888;8.330;2023-03-01T17:28:25;4.70;53.40
75769;DHT22;64379;48.888;8.330;2023-03-01T17:30:51;4.70;53.20
75769;DHT22;64379;48.888;8.330;2023-03-01T17:33:18;4.70;53.20
75769;DHT22;64379;48.888;8.330;2023-03-01T17:35:44;4.70;53.20
75769;DHT22;64379;48.888;8.330;2023-03-01T17:38:12;4.60;53.50
75769;DHT22;64379;48.888;8.330;2023-03-01T17:40:40;4.50;53.40
75769;DHT22;64379;48.888;8.330;2023-03-01T17:43:07;4.40;54.00
75769;DHT22;64379;48.888;8.330;2023-03-01T17:45:36;4.30;54.10
75769;DHT22;64379;48.888;8.330;2023-03-01T17:48:02;4.20;54.70
75769;DHT22;64379;48.888;8.330;2023-03-01T17:50:28;4.00;54.80
75769;DHT22;64379;48.888;8.330;2023-03-01T17:52:54;3.90;55.20